sensor_id;sensor_type;location;lat;lon;timestamp;temperature;humidity
39189;DHT22;24915;50.858;4.376;2023-04-07T00:02:16;9.50;99.90
39189;DHT22;24915;50.858;4.376;2023-04-07T00:04:42;9.50;99.90
39189;DHT22;24915;50.858;4.376;2023-04-07T00:07:08;9.50;99.90
39189;DHT22;24915;50.858;4.376;2023-04-07T00:09:33;9.50;99.90
39189;DHT22;24915;50.858;4.376;2023-04-07T00:11:59;9.50;99.90
39189;DHT22;24915;50.858;4.376;2023-04-07T00:14:29;9.50;99.90
39189;DHT22;24915;50.858;4.376;2023-04-07T00:16:54;9.50;99.90
39189;DHT22;24915;50.858;4.376;2023-04-07T00:19:20;9.50;99.90
39189;DHT22;24915;50.858;4.376;2023-04-07T00:21:46;9.50;99.90
39189;DHT22;24915;50.858;4.376;2023-04-07T00:24:11;9.50;99.90
39189;DHT22;24915;50.858;4.376;2023-04-07T00:26:37;9.50;99.90
39189;DHT22;24915;50.858;4.376;2023-04-07T00:29:03;9.50;99.90
39189;DHT22;24915;50.858;4.376;2023-04-07T00:31:28;9.40;99.90
39189;DHT22;24915;50.858;4.376;2023-04-07T00:33:54;9.40;99.90
39189;DHT22;24915;50.858;4.376;2023-04-07T00:36:22;9.40;99.90
39189;DHT22;24915;50.858;4.376;2023-04-07T00:38:48;9.40;99.90
39189;DHT22;24915;50.858;4.376;2023-04-07T00:41:13;9.40;99.90
39189;DHT22;24915;50.858;4.376;2023-04-07T00:43:39;9.30;99.90
39189;DHT22;24915;50.858;4.376;2023-04-07T00:46:05;9.40;99.90
39189;DHT22;24915;50.858;4.376;2023-04-07T00:48:30;9.30;99.90
39189;DHT22;24915;50.858;4.376;2023-04-07T00:50:56;9.30;99.90
39189;DHT22;24915;50.858;4.376;2023-04-07T00:53:22;9.40;99.90
39189;DHT22;24915;50.858;4.376;2023-04-07T00:55:47;9.40;99.90
39189;DHT22;24915;50.858;4.376;2023-04-07T00:58:14;9.40;99.90
39189;DHT22;24915;50.858;4.376;2023-04-07T01:03:51;9.40;99.90
39189;DHT22;24915;50.858;4.376;2023-04-07T01:06:19;9.40;99.90
39189;DHT22;24915;50.858;4.376;2023-04-07T01:08:53;9.30;99.90
39189;DHT22;24915;50.858;4.376;2023-04-07T01:13:56;9.30;99.90
39189;DHT22;24915;50.858;4.376;2023-04-07T01:16:27;9.30;99.90
39189;DHT22;24915;50.858;4.376;2023-04-07T01:18:57;9.30;99.90
39189;DHT22;24915;50.858;4.376;2023-04-07T01:21:26;9.30;99.90
39189;DHT22;24915;50.858;4.376;2023-04-07T01:26:48;9.30;99.90
39189;DHT22;24915;50.858;4.376;2023-04-07T01:29:33;9.30;99.90
39189;DHT22;24915;50.858;4.376;2023-04-07T01:32:01;9.30;99.90
39189;DHT22;24915;50.858;4.376;2023-04-07T01:34:30;9.30;99.90
39189;DHT22;24915;50.858;4.376;2023-04-07T01:36:58;9.30;99.90
39189;DHT22;24915;50.858;4.376;2023-04-07T01:39:26;9.30;99.90
39189;DHT22;24915;50.858;4.376;2023-04-07T01:41:53;9.30;99.90
39189;DHT22;24915;50.858;4.376;2023-04-07T01:44:20;9.30;99.90
39189;DHT22;24915;50.858;4.376;2023-04-07T01:46:46;9.30;99.90
39189;DHT22;24915;50.858;4.376;2023-04-07T01:49:13;9.30;99.90
39189;DHT22;24915;50.858;4.376;2023-04-07T01:51:40;9.30;99.90
39189;DHT22;24915;50.858;4.376;2023-04-07T01:54:07;9.30;99.90
39189;DHT22;24915;50.858;4.376;2023-04-07T01:56:33;9.30;99.90
39189;DHT22;24915;50.858;4.376;2023-04-07T01:58:58;9.30;99.90
39189;DHT22;24915;50.858;4.376;2023-04-07T02:01:24;9.30;99.90
39189;DHT22;24915;50.858;4.376;2023-04-07T02:06:36;9.30;99.90
39189;DHT22;24915;50.858;4.376;2023-04-07T02:09:06;9.30;99.90
39189;DHT22;24915;50.858;4.376;2023-04-07T02:11:33;9.30;99.90
39189;DHT22;24915;50.858;4.376;2023-04-07T02:14:01;9.30;99.90
39189;DHT22;24915;50.858;4.376;2023-04-07T02:16:31;9.30;99.90
39189;DHT22;24915;50.858;4.376;2023-04-07T02:18:57;9.30;99.90
39189;DHT22;24915;50.858;4.376;2023-04-07T02:21:25;9.30;99.90
39189;DHT22;24915;50.858;4.376;2023-04-07T02:23:51;9.30;99.90
39189;DHT22;24915;50.858;4.376;2023-04-07T02:26:17;9.30;99.90
39189;DHT22;24915;50.858;4.376;2023-04-07T02:28:42;9.30;99.90
39189;DHT22;24915;50.858;4.376;2023-04-07T02:31:08;9.30;99.90
39189;DHT22;24915;50.858;4.376;2023-04-07T02:33:34;9.30;99.90
39189;DHT22;24915;50.858;4.376;2023-04-07T02:36:00;9.30;99.90
39189;DHT22;24915;50.858;4.376;2023-04-07T02:38:25;9.30;99.90
39189;DHT22;24915;50.858;4.376;2023-04-07T02:40:51;9.30;99.90
39189;DHT22;24915;50.858;4.376;2023-04-07T02:43:20;9.30;99.90
39189;DHT22;24915;50.858;4.376;2023-04-07T02:45:45;9.30;99.90
39189;DHT22;24915;50.858;4.376;2023-04-07T02:48:11;9.30;99.90
39189;DHT22;24915;50.858;4.376;2023-04-07T02:50:37;9.20;99.90
39189;DHT22;24915;50.858;4.376;2023-04-07T02:53:02;9.30;99.90
39189;DHT22;24915;50.858;4.376;2023-04-07T02:55:28;9.20;99.90
39189;DHT22;24915;50.858;4.376;2023-04-07T02:57:54;9.20;99.90
39189;DHT22;24915;50.858;4.376;2023-04-07T03:00:19;9.20;99.90
39189;DHT22;24915;50.858;4.376;2023-04-07T03:02:45;9.20;99.90
39189;DHT22;24915;50.858;4.376;2023-04-07T03:05:12;9.30;99.90
39189;DHT22;24915;50.858;4.376;2023-04-07T03:07:37;9.30;99.90
39189;DHT22;24915;50.858;4.376;2023-04-07T03:10:03;9.30;99.90
39189;DHT22;24915;50.858;4.376;2023-04-07T03:12:29;9.20;99.90
39189;DHT22;24915;50.858;4.376;2023-04-07T03:14:54;9.20;99.90
39189;DHT22;24915;50.858;4.376;2023-04-07T03:17:20;9.20;99.90
39189;DHT22;24915;50.858;4.376;2023-04-07T03:19:46;9.20;99.90
39189;DHT22;24915;50.858;4.376;2023-04-07T03:22:11;9.20;99.90
39189;DHT22;24915;50.858;4.376;2023-04-07T03:24:37;9.20;99.90
39189;DHT22;24915;50.858;4.376;2023-04-07T03:27:04;9.20;99.90
39189;DHT22;24915;50.858;4.376;2023-04-07T03:29:29;9.20;99.90
39189;DHT22;24915;50.858;4.376;2023-04-07T03:31:55;9.20;99.90
39189;DHT22;24915;50.858;4.376;2023-04-07T03:34:21;9.20;99.90
39189;DHT22;24915;50.858;4.376;2023-04-07T03:36:47;9.20;99.90
39189;DHT22;24915;50.858;4.376;2023-04-07T03:39:13;9.10;99.90
39189;DHT22;24915;50.858;4.376;2023-04-07T03:41:38;9.10;99.90
39189;DHT22;24915;50.858;4.376;2023-04-07T03:44:04;9.10;99.90
39189;DHT22;24915;50.858;4.376;2023-04-07T03:46:30;9.10;99.90
39189;DHT22;24915;50.858;4.376;2023-04-07T03:48:55;9.10;99.90
39189;DHT22;24915;50.858;4.376;2023-04-07T03:51:21;9.10;99.90
39189;DHT22;24915;50.858;4.376;2023-04-07T03:53:47;9.10;99.90
39189;DHT22;24915;50.858;4.376;2023-04-07T03:56:12;9.10;99.90
39189;DHT22;24915;50.858;4.376;2023-04-07T03:58:38;9.10;99.90
39189;DHT22;24915;50.858;4.376;2023-04-07T04:01:07;9.10;99.90
39189;DHT22;24915;50.858;4.376;2023-04-07T04:03:33;9.10;99.90
39189;DHT22;24915;50.858;4.376;2023-04-07T04:05:59;9.10;99.90
39189;DHT22;24915;50.858;4.376;2023-04-07T04:08:24;9.10;99.90
39189;DHT22;24915;50.858;4.376;2023-04-07T04:10:50;9.10;99.90
39189;DHT22;24915;50.858;4.376;2023-04-07T04:13:16;9.10;99.90
39189;DHT22;24915;50.858;4.376;2023-04-07T04:15:42;9.10;99.90
39189;DHT22;24915;50.858;4.376;2023-04-07T04:18:08;9.10;99.90
39189;DHT22;24915;50.858;4.376;2023-04-07T04:20:33;9.10;99.90
39189;DHT22;24915;50.858;4.376;2023-04-07T04:22:59;9.10;99.90
39189;DHT22;24915;50.858;4.376;2023-04-07T04:25:24;9.00;99.90
39189;DHT22;24915;50.858;4.376;2023-04-07T04:27:51;9.00;99.90
39189;DHT22;24915;50.858;4.376;2023-04-07T04:30:16;9.10;99.90
39189;DHT22;24915;50.858;4.376;2023-04-07T04:32:42;9.00;99.90
39189;DHT22;24915;50.858;4.376;2023-04-07T04:35:08;9.10;99.90
39189;DHT22;24915;50.858;4.376;2023-04-07T04:37:34;9.10;99.90
39189;DHT22;24915;50.858;4.376;2023-04-07T04:40:00;9.10;99.90
39189;DHT22;24915;50.858;4.376;2023-04-07T04:42:25;9.10;99.90
39189;DHT22;24915;50.858;4.376;2023-04-07T04:44:52;9.00;99.90
39189;DHT22;24915;50.858;4.376;2023-04-07T04:47:18;9.10;99.90
39189;DHT22;24915;50.858;4.376;2023-04-07T04:49:44;9.10;99.90
39189;DHT22;24915;50.858;4.376;2023-04-07T04:52:10;9.10;99.90
39189;DHT22;24915;50.858;4.376;2023-04-07T04:54:35;9.00;99.90
39189;DHT22;24915;50.858;4.376;2023-04-07T04:57:01;9.00;99.90
39189;DHT22;24915;50.858;4.376;2023-04-07T04:59:26;9.00;99.90
39189;DHT22;24915;50.858;4.376;2023-04-07T05:01:52;9.00;99.90
39189;DHT22;24915;50.858;4.376;2023-04-07T05:04:18;9.00;99.90
39189;DHT22;24915;50.858;4.376;2023-04-07T05:06:43;9.00;99.90
39189;DHT22;24915;50.858;4.376;2023-04-07T05:09:09;9.00;99.90
39189;DHT22;24915;50.858;4.376;2023-04-07T05:11:35;9.00;99.90
39189;DHT22;24915;50.858;4.376;2023-04-07T05:14:00;9.00;99.90
39189;DHT22;24915;50.858;4.376;2023-04-07T05:16:26;9.00;99.90
39189;DHT22;24915;50.858;4.376;2023-04-07T05:18:51;8.90;99.90
39189;DHT22;24915;50.858;4.376;2023-04-07T05:21:17;8.90;99.90
39189;DHT22;24915;50.858;4.376;2023-04-07T05:23:44;8.90;99.90
39189;DHT22;24915;50.858;4.376;2023-04-07T05:26:10;8.90;99.90
39189;DHT22;24915;50.858;4.376;2023-04-07T05:28:36;8.90;99.90
39189;DHT22;24915;50.858;4.376;2023-04-07T05:31:01;8.80;99.90
39189;DHT22;24915;50.858;4.376;2023-04-07T05:33:27;8.80;99.90
39189;DHT22;24915;50.858;4.376;2023-04-07T05:35:53;8.80;99.90
39189;DHT22;24915;50.858;4.376;2023-04-07T05:38:19;8.80;99.90
39189;DHT22;24915;50.858;4.376;2023-04-07T05:40:45;8.80;99.90
39189;DHT22;24915;50.858;4.376;2023-04-07T05:43:11;8.80;99.90
39189;DHT22;24915;50.858;4.376;2023-04-07T05:45:37;8.80;99.90
39189;DHT22;24915;50.858;4.376;2023-04-07T05:48:03;8.80;99.90
39189;DHT22;24915;50.858;4.376;2023-04-07T05:50:28;8.80;99.90
39189;DHT22;24915;50.858;4.376;2023-04-07T05:52:54;8.80;99.90
39189;DHT22;24915;50.858;4.376;2023-04-07T05:55:20;8.80;99.90
39189;DHT22;24915;50.858;4.376;2023-04-07T05:57:45;8.80;99.90
39189;DHT22;24915;50.858;4.376;2023-04-07T06:00:12;8.80;99.90
39189;DHT22;24915;50.858;4.376;2023-04-07T06:02:38;8.80;99.90
39189;DHT22;24915;50.858;4.376;2023-04-07T06:05:05;8.80;99.90
39189;DHT22;24915;50.858;4.376;2023-04-07T06:07:31;8.80;99.90
39189;DHT22;24915;50.858;4.376;2023-04-07T06:09:57;8.80;99.90
39189;DHT22;24915;50.858;4.376;2023-04-07T06:12:23;8.90;99.90
39189;DHT22;24915;50.858;4.376;2023-04-07T06:14:53;8.90;99.90
39189;DHT22;24915;50.858;4.376;2023-04-07T06:17:19;8.90;99.90
39189;DHT22;24915;50.858;4.376;2023-04-07T06:19:44;9.00;99.90
39189;DHT22;24915;50.858;4.376;2023-04-07T06:22:10;9.00;99.90
39189;DHT22;24915;50.858;4.376;2023-04-07T06:24:36;9.00;99.90
39189;DHT22;24915;50.858;4.376;2023-04-07T06:27:02;9.00;99.90
39189;DHT22;24915;50.858;4.376;2023-04-07T06:29:29;9.10;99.90
39189;DHT22;24915;50.858;4.376;2023-04-07T06:31:54;9.10;99.90
39189;DHT22;24915;50.858;4.376;2023-04-07T06:34:20;9.20;99.90
39189;DHT22;24915;50.858;4.376;2023-04-07T06:36:46;9.20;99.90
39189;DHT22;24915;50.858;4.376;2023-04-07T06:39:12;9.20;99.90
39189;DHT22;24915;50.858;4.376;2023-04-07T06:41:37;9.20;99.90
39189;DHT22;24915;50.858;4.376;2023-04-07T06:44:03;9.30;99.90
39189;DHT22;24915;50.858;4.376;2023-04-07T06:46:29;9.30;99.90
39189;DHT22;24915;50.858;4.376;2023-04-07T06:48:55;9.30;99.90
39189;DHT22;24915;50.858;4.376;2023-04-07T06:51:21;9.40;99.90
39189;DHT22;24915;50.858;4.376;2023-04-07T06:53:46;9.40;99.90
39189;DHT22;24915;50.858;4.376;2023-04-07T06:56:13;9.40;99.90
39189;DHT22;24915;50.858;4.376;2023-04-07T06:58:39;9.40;99.90
39189;DHT22;24915;50.858;4.376;2023-04-07T07:01:05;9.50;99.90
39189;DHT22;24915;50.858;4.376;2023-04-07T07:03:31;9.40;99.90
39189;DHT22;24915;50.858;4.376;2023-04-07T07:05:58;9.50;99.90
39189;DHT22;24915;50.858;4.376;2023-04-07T07:08:25;9.50;99.90
39189;DHT22;24915;50.858;4.376;2023-04-07T07:10:51;9.50;99.90
39189;DHT22;24915;50.858;4.376;2023-04-07T07:13:18;9.50;99.90
39189;DHT22;24915;50.858;4.376;2023-04-07T07:15:44;9.50;99.90
39189;DHT22;24915;50.858;4.376;2023-04-07T07:18:11;9.50;99.90
39189;DHT22;24915;50.858;4.376;2023-04-07T07:20:36;9.60;99.90
39189;DHT22;24915;50.858;4.376;2023-04-07T07:23:02;9.60;99.90
39189;DHT22;24915;50.858;4.376;2023-04-07T07:25:28;9.60;99.90
39189;DHT22;24915;50.858;4.376;2023-04-07T07:27:54;9.70;99.90
39189;DHT22;24915;50.858;4.376;2023-04-07T07:30:21;9.70;99.90
39189;DHT22;24915;50.858;4.376;2023-04-07T07:32:47;9.80;99.90
39189;DHT22;24915;50.858;4.376;2023-04-07T07:35:13;9.90;99.90
39189;DHT22;24915;50.858;4.376;2023-04-07T07:37:39;10.00;99.90
39189;DHT22;24915;50.858;4.376;2023-04-07T07:40:05;10.10;99.90
39189;DHT22;24915;50.858;4.376;2023-04-07T07:42:31;10.10;99.90
39189;DHT22;24915;50.858;4.376;2023-04-07T07:44:57;10.20;99.90
39189;DHT22;24915;50.858;4.376;2023-04-07T07:47:23;10.20;99.90
39189;DHT22;24915;50.858;4.376;2023-04-07T07:49:50;10.10;99.90
39189;DHT22;24915;50.858;4.376;2023-04-07T07:52:15;10.10;99.90
39189;DHT22;24915;50.858;4.376;2023-04-07T07:54:41;10.00;99.90
39189;DHT22;24915;50.858;4.376;2023-04-07T07:57:06;10.00;99.90
39189;DHT22;24915;50.858;4.376;2023-04-07T07:59:33;10.00;99.90
39189;DHT22;24915;50.858;4.376;2023-04-07T08:01:58;10.00;99.90
39189;DHT22;24915;50.858;4.376;2023-04-07T08:04:24;10.00;99.90
39189;DHT22;24915;50.858;4.376;2023-04-07T08:06:51;10.00;99.90
39189;DHT22;24915;50.858;4.376;2023-04-07T08:09:17;10.00;99.90
39189;DHT22;24915;50.858;4.376;2023-04-07T08:11:43;10.00;99.90
39189;DHT22;24915;50.858;4.376;2023-04-07T08:14:09;10.10;99.90
39189;DHT22;24915;50.858;4.376;2023-04-07T08:16:34;10.10;99.90
39189;DHT22;24915;50.858;4.376;2023-04-07T08:19:00;10.20;99.90
39189;DHT22;24915;50.858;4.376;2023-04-07T08:21:26;10.20;99.90
39189;DHT22;24915;50.858;4.376;2023-04-07T08:23:55;10.20;99.90
39189;DHT22;24915;50.858;4.376;2023-04-07T08:26:20;10.20;99.90
39189;DHT22;24915;50.858;4.376;2023-04-07T08:28:48;10.20;99.90
39189;DHT22;24915;50.858;4.376;2023-04-07T08:31:16;10.10;99.90
39189;DHT22;24915;50.858;4.376;2023-04-07T08:33:41;10.10;99.90
39189;DHT22;24915;50.858;4.376;2023-04-07T08:36:07;10.00;99.90
39189;DHT22;24915;50.858;4.376;2023-04-07T08:38:33;10.00;99.90
39189;DHT22;24915;50.858;4.376;2023-04-07T08:41:11;10.10;99.90
39189;DHT22;24915;50.858;4.376;2023-04-07T08:43:38;10.00;99.90
39189;DHT22;24915;50.858;4.376;2023-04-07T08:46:06;10.00;99.90
39189;DHT22;24915;50.858;4.376;2023-04-07T08:48:33;10.10;99.90
39189;DHT22;24915;50.858;4.376;2023-04-07T08:51:07;10.10;99.90
39189;DHT22;24915;50.858;4.376;2023-04-07T08:53:42;10.20;99.90
39189;DHT22;24915;50.858;4.376;2023-04-07T08:56:12;10.20;99.90
39189;DHT22;24915;50.858;4.376;2023-04-07T08:58:38;10.30;99.90
39189;DHT22;24915;50.858;4.376;2023-04-07T09:01:04;10.40;99.90
39189;DHT22;24915;50.858;4.376;2023-04-07T09:03:32;10.50;99.90
39189;DHT22;24915;50.858;4.376;2023-04-07T09:06:00;10.70;99.90
39189;DHT22;24915;50.858;4.376;2023-04-07T09:08:26;10.80;99.90
39189;DHT22;24915;50.858;4.376;2023-04-07T09:10:52;10.90;99.90
39189;DHT22;24915;50.858;4.376;2023-04-07T09:13:18;11.10;99.90
39189;DHT22;24915;50.858;4.376;2023-04-07T09:15:44;11.40;99.90
39189;DHT22;24915;50.858;4.376;2023-04-07T09:18:10;11.80;99.90
39189;DHT22;24915;50.858;4.376;2023-04-07T09:25:54;12.70;99.90
39189;DHT22;24915;50.858;4.376;2023-04-07T09:28:19;12.90;99.90
39189;DHT22;24915;50.858;4.376;2023-04-07T09:30:54;13.20;99.90
39189;DHT22;24915;50.858;4.376;2023-04-07T09:33:29;13.60;99.90
39189;DHT22;24915;50.858;4.376;2023-04-07T09:35:55;13.70;99.90
39189;DHT22;24915;50.858;4.376;2023-04-07T09:38:21;13.80;99.90
39189;DHT22;24915;50.858;4.376;2023-04-07T09:40:46;13.80;99.90
39189;DHT22;24915;50.858;4.376;2023-04-07T09:43:17;13.70;99.90
39189;DHT22;24915;50.858;4.376;2023-04-07T09:45:43;13.60;99.90
39189;DHT22;24915;50.858;4.376;2023-04-07T09:48:19;13.50;99.90
39189;DHT22;24915;50.858;4.376;2023-04-07T09:50:45;13.50;99.90
39189;DHT22;24915;50.858;4.376;2023-04-07T09:53:16;13.60;99.90
39189;DHT22;24915;50.858;4.376;2023-04-07T09:55:44;13.70;99.90
39189;DHT22;24915;50.858;4.376;2023-04-07T09:58:12;13.80;99.90
39189;DHT22;24915;50.858;4.376;2023-04-07T10:00:40;14.00;99.90
39189;DHT22;24915;50.858;4.376;2023-04-07T10:03:06;14.10;99.90
39189;DHT22;24915;50.858;4.376;2023-04-07T10:05:33;14.10;99.90
39189;DHT22;24915;50.858;4.376;2023-04-07T10:08:00;14.10;99.90
39189;DHT22;24915;50.858;4.376;2023-04-07T10:10:27;14.00;99.90
39189;DHT22;24915;50.858;4.376;2023-04-07T10:12:56;14.00;99.90
39189;DHT22;24915;50.858;4.376;2023-04-07T10:15:22;14.00;99.90
39189;DHT22;24915;50.858;4.376;2023-04-07T10:17:49;14.10;99.90
39189;DHT22;24915;50.858;4.376;2023-04-07T10:20:17;14.30;99.90
39189;DHT22;24915;50.858;4.376;2023-04-07T10:22:46;14.40;99.90
39189;DHT22;24915;50.858;4.376;2023-04-07T10:25:15;14.50;99.90
39189;DHT22;24915;50.858;4.376;2023-04-07T10:27:48;14.50;99.90
39189;DHT22;24915;50.858;4.376;2023-04-07T10:30:27;14.30;99.90
39189;DHT22;24915;50.858;4.376;2023-04-07T10:32:54;14.10;99.90
39189;DHT22;24915;50.858;4.376;2023-04-07T10:35:20;13.80;99.90
39189;DHT22;24915;50.858;4.376;2023-04-07T10:38:11;13.50;99.90
39189;DHT22;24915;50.858;4.376;2023-04-07T10:40:41;13.20;99.90
39189;DHT22;24915;50.858;4.376;2023-04-07T10:43:07;13.00;99.90
39189;DHT22;24915;50.858;4.376;2023-04-07T10:48:17;12.70;99.90
39189;DHT22;24915;50.858;4.376;2023-04-07T10:53:28;12.50;99.90
39189;DHT22;24915;50.858;4.376;2023-04-07T10:55:54;12.40;99.90
39189;DHT22;24915;50.858;4.376;2023-04-07T10:58:31;12.40;99.90
39189;DHT22;24915;50.858;4.376;2023-04-07T11:03:35;12.20;99.90
39189;DHT22;24915;50.858;4.376;2023-04-07T11:08:42;12.30;99.90
39189;DHT22;24915;50.858;4.376;2023-04-07T11:11:10;12.40;99.90
39189;DHT22;24915;50.858;4.376;2023-04-07T11:13:44;12.40;99.90
39189;DHT22;24915;50.858;4.376;2023-04-07T11:16:11;12.60;99.90
39189;DHT22;24915;50.858;4.376;2023-04-07T11:18:37;12.70;99.90
39189;DHT22;24915;50.858;4.376;2023-04-07T11:21:04;12.90;99.90
39189;DHT22;24915;50.858;4.376;2023-04-07T11:23:37;13.00;99.90
39189;DHT22;24915;50.858;4.376;2023-04-07T11:26:03;13.10;99.90
39189;DHT22;24915;50.858;4.376;2023-04-07T11:28:30;13.10;99.90
39189;DHT22;24915;50.858;4.376;2023-04-07T11:30:56;13.10;99.90
39189;DHT22;24915;50.858;4.376;2023-04-07T11:33:28;13.00;99.90
39189;DHT22;24915;50.858;4.376;2023-04-07T11:36:01;12.90;99.90
39189;DHT22;24915;50.858;4.376;2023-04-07T11:38:29;12.90;99.90
39189;DHT22;24915;50.858;4.376;2023-04-07T11:41:10;12.70;99.90
39189;DHT22;24915;50.858;4.376;2023-04-07T11:43:36;12.60;99.90
39189;DHT22;24915;50.858;4.376;2023-04-07T11:48:32;12.40;99.90
39189;DHT22;24915;50.858;4.376;2023-04-07T11:50:58;12.50;99.90
39189;DHT22;24915;50.858;4.376;2023-04-07T11:53:31;12.60;99.90
39189;DHT22;24915;50.858;4.376;2023-04-07T11:56:05;12.60;99.90
39189;DHT22;24915;50.858;4.376;2023-04-07T11:58:34;12.70;99.90
39189;DHT22;24915;50.858;4.376;2023-04-07T12:01:02;12.90;99.90
39189;DHT22;24915;50.858;4.376;2023-04-07T12:03:35;13.10;99.90
39189;DHT22;24915;50.858;4.376;2023-04-07T12:06:02;13.20;99.90
39189;DHT22;24915;50.858;4.376;2023-04-07T12:08:42;13.40;99.90
39189;DHT22;24915;50.858;4.376;2023-04-07T12:11:08;13.50;99.90
39189;DHT22;24915;50.858;4.376;2023-04-07T12:13:36;13.40;99.90
39189;DHT22;24915;50.858;4.376;2023-04-07T12:16:02;13.20;99.90
39189;DHT22;24915;50.858;4.376;2023-04-07T12:18:28;12.90;99.90
39189;DHT22;24915;50.858;4.376;2023-04-07T12:20:54;12.80;99.90
39189;DHT22;24915;50.858;4.376;2023-04-07T12:23:21;12.60;99.90
39189;DHT22;24915;50.858;4.376;2023-04-07T12:25:47;12.50;99.90
39189;DHT22;24915;50.858;4.376;2023-04-07T12:28:12;12.50;99.90
39189;DHT22;24915;50.858;4.376;2023-04-07T12:30:38;12.50;99.90
39189;DHT22;24915;50.858;4.376;2023-04-07T12:33:04;12.50;99.90
39189;DHT22;24915;50.858;4.376;2023-04-07T12:35:30;12.50;99.90
39189;DHT22;24915;50.858;4.376;2023-04-07T12:37:56;12.50;99.90
39189;DHT22;24915;50.858;4.376;2023-04-07T12:40:22;12.50;99.90
39189;DHT22;24915;50.858;4.376;2023-04-07T12:42:48;12.60;99.90
39189;DHT22;24915;50.858;4.376;2023-04-07T12:45:14;12.60;99.90
39189;DHT22;24915;50.858;4.376;2023-04-07T12:47:40;12.60;99.90
39189;DHT22;24915;50.858;4.376;2023-04-07T12:50:06;12.60;99.90
39189;DHT22;24915;50.858;4.376;2023-04-07T12:52:31;12.60;99.90
39189;DHT22;24915;50.858;4.376;2023-04-07T12:54:57;12.60;99.90
39189;DHT22;24915;50.858;4.376;2023-04-07T12:57:24;12.60;99.90
39189;DHT22;24915;50.858;4.376;2023-04-07T12:59:49;12.50;99.90
39189;DHT22;24915;50.858;4.376;2023-04-07T13:02:16;12.40;99.90
39189;DHT22;24915;50.858;4.376;2023-04-07T13:04:43;12.20;99.90
39189;DHT22;24915;50.858;4.376;2023-04-07T13:07:14;12.10;99.90
39189;DHT22;24915;50.858;4.376;2023-04-07T13:09:40;12.00;99.90
39189;DHT22;24915;50.858;4.376;2023-04-07T13:12:10;11.90;99.90
39189;DHT22;24915;50.858;4.376;2023-04-07T13:14:37;11.90;99.90
39189;DHT22;24915;50.858;4.376;2023-04-07T13:17:04;11.80;99.90
39189;DHT22;24915;50.858;4.376;2023-04-07T13:19:29;11.80;99.90
39189;DHT22;24915;50.858;4.376;2023-04-07T13:21:55;11.80;99.90
39189;DHT22;24915;50.858;4.376;2023-04-07T13:24:21;11.90;99.90
39189;DHT22;24915;50.858;4.376;2023-04-07T13:26:47;12.00;99.90
39189;DHT22;24915;50.858;4.376;2023-04-07T13:29:13;12.00;99.90
39189;DHT22;24915;50.858;4.376;2023-04-07T13:31:39;12.00;99.90
39189;DHT22;24915;50.858;4.376;2023-04-07T13:34:04;12.00;99.90
39189;DHT22;24915;50.858;4.376;2023-04-07T13:36:30;12.10;99.90
39189;DHT22;24915;50.858;4.376;2023-04-07T13:38:56;12.10;99.90
39189;DHT22;24915;50.858;4.376;2023-04-07T13:41:22;12.20;99.90
39189;DHT22;24915;50.858;4.376;2023-04-07T13:43:47;12.20;99.90
39189;DHT22;24915;50.858;4.376;2023-04-07T13:46:13;12.40;99.90
39189;DHT22;24915;50.858;4.376;2023-04-07T13:48:40;12.40;99.90
39189;DHT22;24915;50.858;4.376;2023-04-07T13:51:06;12.30;99.90
39189;DHT22;24915;50.858;4.376;2023-04-07T13:53:32;12.30;99.90
39189;DHT22;24915;50.858;4.376;2023-04-07T13:55:58;12.30;99.90
39189;DHT22;24915;50.858;4.376;2023-04-07T13:58:24;12.30;99.90
39189;DHT22;24915;50.858;4.376;2023-04-07T14:00:50;12.40;99.90
39189;DHT22;24915;50.858;4.376;2023-04-07T14:03:15;12.40;99.90
39189;DHT22;24915;50.858;4.376;2023-04-07T14:05:41;12.50;99.90
39189;DHT22;24915;50.858;4.376;2023-04-07T14:08:07;12.40;99.90
39189;DHT22;24915;50.858;4.376;2023-04-07T14:10:32;12.40;99.90
39189;DHT22;24915;50.858;4.376;2023-04-07T14:12:59;12.30;99.90
39189;DHT22;24915;50.858;4.376;2023-04-07T14:15:24;12.30;99.90
39189;DHT22;24915;50.858;4.376;2023-04-07T14:17:50;12.40;99.90
39189;DHT22;24915;50.858;4.376;2023-04-07T14:20:16;12.50;99.90
39189;DHT22;24915;50.858;4.376;2023-04-07T14:22:42;12.60;99.90
39189;DHT22;24915;50.858;4.376;2023-04-07T14:25:07;12.80;99.90
39189;DHT22;24915;50.858;4.376;2023-04-07T14:27:33;13.00;99.90
39189;DHT22;24915;50.858;4.376;2023-04-07T14:29:58;13.10;99.90
39189;DHT22;24915;50.858;4.376;2023-04-07T14:32:26;13.10;99.90
39189;DHT22;24915;50.858;4.376;2023-04-07T14:34:54;13.00;99.90
39189;DHT22;24915;50.858;4.376;2023-04-07T14:37:19;13.10;99.90
39189;DHT22;24915;50.858;4.376;2023-04-07T14:39:48;13.10;99.90
39189;DHT22;24915;50.858;4.376;2023-04-07T14:42:14;12.90;99.90
39189;DHT22;24915;50.858;4.376;2023-04-07T14:44:40;12.70;99.90
39189;DHT22;24915;50.858;4.376;2023-04-07T14:47:06;12.60;99.90
39189;DHT22;24915;50.858;4.376;2023-04-07T14:49:31;12.60;99.90
39189;DHT22;24915;50.858;4.376;2023-04-07T14:51:57;12.50;99.90
39189;DHT22;24915;50.858;4.376;2023-04-07T14:54:23;12.50;99.90
39189;DHT22;24915;50.858;4.376;2023-04-07T14:56:48;12.50;99.90
39189;DHT22;24915;50.858;4.376;2023-04-07T14:59:14;12.50;99.90
39189;DHT22;24915;50.858;4.376;2023-04-07T15:01:40;12.40;99.90
39189;DHT22;24915;50.858;4.376;2023-04-07T15:04:05;12.40;99.90
39189;DHT22;24915;50.858;4.376;2023-04-07T15:06:31;12.40;99.90
39189;DHT22;24915;50.858;4.376;2023-04-07T15:08:57;12.40;99.90
39189;DHT22;24915;50.858;4.376;2023-04-07T15:11:23;12.40;99.90
39189;DHT22;24915;50.858;4.376;2023-04-07T15:13:48;12.40;99.90
39189;DHT22;24915;50.858;4.376;2023-04-07T15:16:14;12.40;99.90
39189;DHT22;24915;50.858;4.376;2023-04-07T15:18:42;12.30;99.90
39189;DHT22;24915;50.858;4.376;2023-04-07T15:21:09;12.20;99.90
39189;DHT22;24915;50.858;4.376;2023-04-07T15:23:36;12.10;99.90
39189;DHT22;24915;50.858;4.376;2023-04-07T15:26:03;12.10;99.90
39189;DHT22;24915;50.858;4.376;2023-04-07T15:28:29;12.10;99.90
39189;DHT22;24915;50.858;4.376;2023-04-07T15:30:55;12.00;99.90
39189;DHT22;24915;50.858;4.376;2023-04-07T15:33:20;12.00;99.90
39189;DHT22;24915;50.858;4.376;2023-04-07T15:35:46;12.00;99.90
39189;DHT22;24915;50.858;4.376;2023-04-07T15:38:12;12.00;99.90
39189;DHT22;24915;50.858;4.376;2023-04-07T15:40:38;12.10;99.90
39189;DHT22;24915;50.858;4.376;2023-04-07T15:43:04;12.10;99.90
39189;DHT22;24915;50.858;4.376;2023-04-07T15:45:31;12.10;99.90
39189;DHT22;24915;50.858;4.376;2023-04-07T15:47:57;12.10;99.90
39189;DHT22;24915;50.858;4.376;2023-04-07T15:50:23;12.10;99.90
39189;DHT22;24915;50.858;4.376;2023-04-07T15:52:49;12.10;99.90
39189;DHT22;24915;50.858;4.376;2023-04-07T15:55:15;12.10;99.90
39189;DHT22;24915;50.858;4.376;2023-04-07T15:57:41;12.10;99.90
39189;DHT22;24915;50.858;4.376;2023-04-07T16:00:07;12.00;99.90
39189;DHT22;24915;50.858;4.376;2023-04-07T16:02:33;12.00;99.90
39189;DHT22;24915;50.858;4.376;2023-04-07T16:04:59;11.90;99.90